createdAt,value
2022-11-17T00:02:01.365Z,82.91
2022-11-17T00:04:30.740Z,82.56
2022-11-17T00:06:59.173Z,83.03
2022-11-17T00:09:27.176Z,82.88
2022-11-17T00:12:12.585Z,82.36
2022-11-17T00:14:41.332Z,82.74
2022-11-17T00:17:11.441Z,82.70
2022-11-17T00:19:58.608Z,82.22
2022-11-17T00:22:27.064Z,82.77
2022-11-17T00:24:55.001Z,82.62
2022-11-17T00:27:22.863Z,82.65
2022-11-17T00:29:50.781Z,82.66
2022-11-17T00:32:38.005Z,82.25
2022-11-17T00:35:08.227Z,83.00
2022-11-17T00:37:59.735Z,82.50
2022-11-17T00:40:27.612Z,83.09
2022-11-17T00:42:55.494Z,82.34
2022-11-17T00:45:23.423Z,82.99
2022-11-17T00:47:51.306Z,82.66
2022-11-17T00:50:20.564Z,82.53
2022-11-17T00:52:48.522Z,82.09
2022-11-17T00:55:16.801Z,83.01
2022-11-17T00:57:44.710Z,83.03
2022-11-17T01:00:13.695Z,82.74
2022-11-17T01:02:44.118Z,83.18
2022-11-17T01:05:12.068Z,83.02
2022-11-17T01:07:41.291Z,82.55
2022-11-17T01:10:10.278Z,82.86
2022-11-17T01:12:38.516Z,82.48
2022-11-17T01:15:07.012Z,82.21
2022-11-17T01:17:34.850Z,82.89
2022-11-17T01:20:02.868Z,82.58
2022-11-17T01:22:30.972Z,83.05
2022-11-17T01:25:01.511Z,82.74
2022-11-17T01:27:29.458Z,82.52
2022-11-17T01:29:57.361Z,83.04
2022-11-17T01:32:25.146Z,82.57
2022-11-17T01:34:53.066Z,82.45
2022-11-17T01:37:20.945Z,82.82
2022-11-17T01:39:49.039Z,82.67
2022-11-17T01:42:20.636Z,82.76
2022-11-17T01:45:03.503Z,82.22
2022-11-17T01:47:37.413Z,82.52
2022-11-17T01:50:11.190Z,83.09
2022-11-17T01:52:41.058Z,83.15
2022-11-17T01:55:11.064Z,83.03
2022-11-17T01:57:47.070Z,83.06
2022-11-17T02:00:15.901Z,82.75
2022-11-17T02:02:45.807Z,82.96
2022-11-17T02:05:27.694Z,82.93
2022-11-17T02:07:57.421Z,82.52
2022-11-17T02:10:25.436Z,82.49
2022-11-17T02:12:55.120Z,82.83
2022-11-17T02:15:23.932Z,81.92
2022-11-17T02:17:54.181Z,82.42
2022-11-17T02:20:31.647Z,81.87
2022-11-17T02:23:29.968Z,82.60
2022-11-17T02:26:30.252Z,81.87
2022-11-17T02:29:05.861Z,82.14
2022-11-17T02:31:44.196Z,82.32
2022-11-17T02:34:24.797Z,82.11
2022-11-17T02:37:00.317Z,81.36
2022-11-17T02:39:34.653Z,81.40
2022-11-17T02:42:05.504Z,81.96
2022-11-17T02:44:40.039Z,81.46
2022-11-17T02:47:12.817Z,81.52
2022-11-17T02:49:45.630Z,81.84
2022-11-17T02:52:14.090Z,81.63
2022-11-17T02:54:41.978Z,81.97
2022-11-17T02:57:30.968Z,81.52
2022-11-17T03:00:02.946Z,81.72
2022-11-17T03:02:49.781Z,81.62
2022-11-17T03:05:24.268Z,82.28
2022-11-17T03:08:06.780Z,82.04
2022-11-17T03:10:46.535Z,81.38
2022-11-17T03:13:20.593Z,81.46
2022-11-17T03:15:55.917Z,81.25
2022-11-17T03:18:30.278Z,81.36
2022-11-17T03:21:03.993Z,82.20
2022-11-17T03:23:37.459Z,82.74
2022-11-17T03:26:11.104Z,82.93
2022-11-17T03:28:40.436Z,82.21
2022-11-17T03:31:11.427Z,82.76
2022-11-17T03:33:41.561Z,82.07
2022-11-17T03:36:14.507Z,82.49
2022-11-17T03:38:48.395Z,82.43
2022-11-17T03:41:19.397Z,82.24
2022-11-17T03:43:51.837Z,82.56
2022-11-17T03:46:24.013Z,82.72
2022-11-17T03:48:56.783Z,81.87
2022-11-17T03:51:28.078Z,82.37
2022-11-17T03:53:57.667Z,81.87
2022-11-17T03:56:35.602Z,82.41
2022-11-17T03:59:10.410Z,82.33
2022-11-17T04:01:40.383Z,81.64
2022-11-17T04:04:08.293Z,81.93
2022-11-17T04:06:36.152Z,82.15
2022-11-17T04:09:05.963Z,81.67
2022-11-17T04:11:51.098Z,81.67
2022-11-17T04:14:36.602Z,81.95
2022-11-17T04:17:05.926Z,81.42
2022-11-17T04:19:33.782Z,81.73
2022-11-17T04:22:01.707Z,81.98
2022-11-17T04:24:29.649Z,81.58
2022-11-17T04:27:15.347Z,81.71
2022-11-17T04:29:43.270Z,81.76
2022-11-17T04:32:12.491Z,81.42
2022-11-17T04:34:42.495Z,81.36
2022-11-17T04:37:17.303Z,82.34
2022-11-17T04:39:45.763Z,82.17
2022-11-17T04:42:12.972Z,82.17
2022-11-17T04:44:40.886Z,82.74
2022-11-17T04:47:08.822Z,82.60
2022-11-17T04:49:38.103Z,82.40
2022-11-17T04:52:06.722Z,82.13
2022-11-17T04:54:34.688Z,81.88
2022-11-17T04:57:02.539Z,82.97
2022-11-17T04:59:30.419Z,81.98
2022-11-17T05:02:04.190Z,82.20
2022-11-17T05:04:51.046Z,82.89
2022-11-17T05:07:20.497Z,82.61
2022-11-17T05:09:48.530Z,82.81
2022-11-17T05:12:33.862Z,81.93
2022-11-17T05:15:01.767Z,82.04
2022-11-17T05:17:28.698Z,83.05
2022-11-17T05:19:57.363Z,83.00
2022-11-17T05:22:44.016Z,82.88
2022-11-17T05:25:11.890Z,82.70
2022-11-17T05:27:39.745Z,83.06
2022-11-17T05:30:09.553Z,82.10
2022-11-17T05:32:37.677Z,82.97
2022-11-17T05:35:06.300Z,82.79
2022-11-17T05:37:35.597Z,82.05
2022-11-17T05:40:03.383Z,82.67
2022-11-17T05:42:31.624Z,83.08
2022-11-17T05:44:59.432Z,82.91
2022-11-17T05:47:27.335Z,83.14
2022-11-17T05:49:55.162Z,82.49
2022-11-17T05:52:23.089Z,82.19
2022-11-17T05:54:52.345Z,82.31
2022-11-17T05:57:29.535Z,82.52
2022-11-17T06:00:01.680Z,82.78
2022-11-17T06:02:33.022Z,82.32
2022-11-17T06:05:01.013Z,82.96
2022-11-17T06:07:29.422Z,83.01
2022-11-17T06:09:58.793Z,82.91
2022-11-17T06:12:26.711Z,83.05
2022-11-17T06:14:55.003Z,83.42
2022-11-17T06:17:27.939Z,83.37
2022-11-17T06:20:02.911Z,83.65
2022-11-17T06:22:31.749Z,83.85
2022-11-17T06:25:02.982Z,83.74
2022-11-17T06:27:33.014Z,83.40
2022-11-17T06:30:03.395Z,83.83
2022-11-17T06:32:32.608Z,84.02
2022-11-17T06:35:02.592Z,83.63
2022-11-17T06:37:30.412Z,84.16
2022-11-17T06:39:58.273Z,83.73
2022-11-17T06:42:41.483Z,84.20
2022-11-17T06:45:10.531Z,84.38
2022-11-17T06:47:38.412Z,84.31
2022-11-17T06:50:07.032Z,83.92
2022-11-17T06:52:35.037Z,84.12
2022-11-17T06:55:13.394Z,84.04
2022-11-17T06:57:42.832Z,84.01
2022-11-17T07:00:12.330Z,85.05
2022-11-17T07:02:40.199Z,84.87
2022-11-17T07:05:08.422Z,85.06
2022-11-17T07:07:36.265Z,84.29
2022-11-17T07:10:04.517Z,84.70
2022-11-17T07:12:32.273Z,84.79
2022-11-17T07:15:01.514Z,84.83
2022-11-17T07:17:29.599Z,85.20
2022-11-17T07:19:57.746Z,85.35
2022-11-17T07:22:25.904Z,85.10
2022-11-17T07:24:53.868Z,84.98
2022-11-17T07:27:21.711Z,85.04
2022-11-17T07:29:49.496Z,85.86
2022-11-17T07:32:18.649Z,85.58
2022-11-17T07:34:46.666Z,85.94
2022-11-17T07:37:14.484Z,85.94
2022-11-17T07:39:42.313Z,85.96
2022-11-17T07:42:10.328Z,85.70
2022-11-17T07:44:38.170Z,85.64
2022-11-17T07:47:06.323Z,85.90
2022-11-17T07:49:35.475Z,86.42
2022-11-17T07:52:03.309Z,86.15
2022-11-17T07:54:31.106Z,85.98
2022-11-17T07:56:58.934Z,86.33
2022-11-17T07:59:26.964Z,86.62
2022-11-17T08:01:54.874Z,86.83
2022-11-17T08:04:23.343Z,86.65
2022-11-17T08:06:52.608Z,87.11
2022-11-17T08:09:20.529Z,86.45
2022-11-17T08:11:48.627Z,86.44
2022-11-17T08:14:16.501Z,86.51
2022-11-17T08:16:44.300Z,86.40
2022-11-17T08:19:12.330Z,86.50
2022-11-17T08:21:41.125Z,87.25
2022-11-17T08:24:10.575Z,86.97
2022-11-17T08:26:38.783Z,87.02
2022-11-17T08:29:06.954Z,87.30
2022-11-17T08:31:34.749Z,87.17
2022-11-17T08:34:02.557Z,86.92
2022-11-17T08:36:30.332Z,87.59
2022-11-17T08:38:58.868Z,86.94
2022-11-17T08:41:28.036Z,87.02
2022-11-17T08:43:55.848Z,86.49
2022-11-17T08:46:23.961Z,87.50
2022-11-17T08:48:56.913Z,86.44
2022-11-17T08:51:25.219Z,85.67
2022-11-17T08:53:53.077Z,86.26
2022-11-17T08:56:21.234Z,85.64
2022-11-17T08:58:50.537Z,85.95
2022-11-17T09:01:18.545Z,85.15
2022-11-17T09:03:48.334Z,85.63
2022-11-17T09:06:17.767Z,85.21
2022-11-17T09:08:47.437Z,85.35
2022-11-17T09:11:16.640Z,85.82
2022-11-17T09:13:45.630Z,85.39
2022-11-17T09:16:15.488Z,84.67
2022-11-17T09:18:43.532Z,84.71
2022-11-17T09:21:13.152Z,85.03
2022-11-17T09:23:41.064Z,84.79
2022-11-17T09:26:11.116Z,85.20
2022-11-17T09:28:39.363Z,85.14
2022-11-17T09:31:08.648Z,84.72
2022-11-17T09:33:38.489Z,84.54
2022-11-17T09:36:07.724Z,84.67
2022-11-17T09:38:36.163Z,84.25
2022-11-17T09:41:19.084Z,84.40
2022-11-17T09:43:52.962Z,84.67
2022-11-17T09:46:26.061Z,84.50
2022-11-17T09:49:04.140Z,84.11
2022-11-17T09:51:34.330Z,83.98
2022-11-17T09:54:08.902Z,84.16
2022-11-17T09:56:36.497Z,84.02
2022-11-17T09:59:11.990Z,84.24
2022-11-17T10:01:40.179Z,83.94
2022-11-17T10:04:13.489Z,83.82
2022-11-17T10:06:43.448Z,83.70
2022-11-17T10:09:25.143Z,84.17
2022-11-17T10:11:55.470Z,83.61
2022-11-17T10:14:23.805Z,84.18
2022-11-17T10:16:54.058Z,83.86
2022-11-17T10:19:25.471Z,83.53
2022-11-17T10:21:55.644Z,83.96
2022-11-17T10:24:37.054Z,84.01
2022-11-17T10:27:07.333Z,83.94
2022-11-17T10:29:35.446Z,83.99
2022-11-17T10:32:10.110Z,84.46
2022-11-17T10:34:41.623Z,84.03
2022-11-17T10:37:26.434Z,83.56
2022-11-17T10:40:04.541Z,84.39
2022-11-17T10:42:32.559Z,84.53
2022-11-17T10:45:02.629Z,84.24
2022-11-17T10:47:34.467Z,84.05
2022-11-17T10:50:25.167Z,84.25
2022-11-17T10:52:54.542Z,84.34
2022-11-17T10:55:27.894Z,84.31
2022-11-17T10:58:00.112Z,83.90
2022-11-17T11:00:33.595Z,83.96
2022-11-17T11:03:16.924Z,84.03
2022-11-17T11:06:01.425Z,84.61
2022-11-17T11:08:35.404Z,84.52
2022-11-17T11:11:08.447Z,84.20
2022-11-17T11:13:40.441Z,84.69
2022-11-17T11:16:10.599Z,84.20
2022-11-17T11:18:39.440Z,84.29
2022-11-17T11:21:16.378Z,84.67
2022-11-17T11:23:52.064Z,84.36
2022-11-17T11:26:47.083Z,83.81
2022-11-17T11:29:26.005Z,84.54
2022-11-17T11:32:10.633Z,83.97
2022-11-17T11:34:45.637Z,85.39
2022-11-17T11:37:16.146Z,84.93
2022-11-17T11:39:55.523Z,84.37
2022-11-17T11:42:47.794Z,84.58
2022-11-17T11:45:24.135Z,84.32
2022-11-17T11:48:14.291Z,83.97
2022-11-17T11:50:51.930Z,84.02
2022-11-17T11:53:28.701Z,84.31
2022-11-17T11:56:10.148Z,84.07
2022-11-17T11:58:44.813Z,85.08
2022-11-17T12:01:14.083Z,84.63
2022-11-17T12:03:49.656Z,84.38
2022-11-17T12:06:42.138Z,84.76
2022-11-17T12:09:32.323Z,83.77
2022-11-17T12:12:01.717Z,85.18
2022-11-17T12:14:31.349Z,84.19
2022-11-17T12:17:07.137Z,85.10
2022-11-17T12:19:54.674Z,84.59
2022-11-17T12:23:03.338Z,84.94
2022-11-17T12:25:36.081Z,85.02
2022-11-17T12:28:29.802Z,84.06
2022-11-17T12:31:03.727Z,84.13
2022-11-17T12:34:24.664Z,84.37
2022-11-17T12:37:18.885Z,84.56
2022-11-17T12:40:01.876Z,84.96
2022-11-17T12:42:33.028Z,84.88
2022-11-17T12:45:09.386Z,84.68
2022-11-17T12:47:39.342Z,84.97
2022-11-17T12:50:46.118Z,85.01
2022-11-17T12:53:24.946Z,85.00
2022-11-17T12:56:31.814Z,85.24
2022-11-17T12:59:24.660Z,85.38
2022-11-17T13:02:00.426Z,85.08
2022-11-17T13:04:36.041Z,85.00
2022-11-17T13:07:06.663Z,85.45
2022-11-17T13:09:42.360Z,85.28
2022-11-17T13:12:12.151Z,84.81
2022-11-17T13:14:54.103Z,85.37
2022-11-17T13:20:22.900Z,84.80
2022-11-17T13:23:02.484Z,84.66
2022-11-17T13:29:27.006Z,84.89
2022-11-17T13:32:25.052Z,84.79
2022-11-17T13:34:57.660Z,85.31
2022-11-17T13:37:27.171Z,85.06
2022-11-17T13:40:02.396Z,85.26
2022-11-17T13:42:34.367Z,85.08
2022-11-17T13:45:06.982Z,84.57
2022-11-17T13:47:46.533Z,84.79
2022-11-17T13:50:34.845Z,84.49
2022-11-17T13:53:06.379Z,84.99
2022-11-17T13:55:35.410Z,84.75
2022-11-17T13:58:06.632Z,84.43
2022-11-17T14:00:37.328Z,85.11
2022-11-17T14:03:27.440Z,85.26
2022-11-17T14:05:56.869Z,85.18
2022-11-17T14:08:28.593Z,85.16
2022-11-17T14:11:15.915Z,85.18
2022-11-17T14:13:46.700Z,84.72
2022-11-17T14:16:24.422Z,85.29
2022-11-17T14:19:05.283Z,84.82
2022-11-17T14:22:00.389Z,85.43
2022-11-17T14:24:28.916Z,85.24
2022-11-17T14:26:56.821Z,85.38
2022-11-17T14:29:25.124Z,84.79
2022-11-17T14:31:53.112Z,84.43
2022-11-17T14:34:25.054Z,85.02
2022-11-17T14:36:54.930Z,84.44
2022-11-17T14:39:23.484Z,85.04
2022-11-17T14:41:52.266Z,84.21
2022-11-17T14:44:23.304Z,84.57
2022-11-17T14:46:51.840Z,84.26
2022-11-17T14:49:24.107Z,84.54
2022-11-17T14:51:53.157Z,84.64
2022-11-17T14:54:21.085Z,84.70
2022-11-17T14:56:49.128Z,85.43
2022-11-17T14:59:43.965Z,84.71
2022-11-17T15:02:12.630Z,84.81
2022-11-17T15:04:50.952Z,85.26
2022-11-17T15:07:23.405Z,85.28
2022-11-17T15:09:51.512Z,85.17
2022-11-17T15:12:19.463Z,85.12
2022-11-17T15:14:51.795Z,85.06
2022-11-17T15:17:20.345Z,85.08
2022-11-17T15:19:49.787Z,84.88
2022-11-17T15:22:17.680Z,85.44
2022-11-17T15:24:46.684Z,85.59
2022-11-17T15:27:23.729Z,85.62
2022-11-17T15:29:51.643Z,84.78
2022-11-17T15:32:20.065Z,84.75
2022-11-17T15:34:49.306Z,85.03
2022-11-17T15:37:17.742Z,85.03
2022-11-17T15:39:53.697Z,85.54
2022-11-17T15:42:21.808Z,85.71
2022-11-17T15:44:49.653Z,85.42
2022-11-17T15:47:20.757Z,85.25
2022-11-17T15:49:50.265Z,85.09
2022-11-17T15:52:30.059Z,85.38
2022-11-17T15:55:07.010Z,85.28
2022-11-17T15:57:37.464Z,85.67
2022-11-17T16:00:06.898Z,85.86
2022-11-17T16:02:34.804Z,85.72
2022-11-17T16:05:04.416Z,85.84
2022-11-17T16:07:35.982Z,85.45
2022-11-17T16:10:07.486Z,86.03
2022-11-17T16:12:36.069Z,85.62
2022-11-17T16:15:09.494Z,85.56
2022-11-17T16:17:37.951Z,86.02
2022-11-17T16:20:09.042Z,86.05
2022-11-17T16:22:37.242Z,85.90
2022-11-17T16:25:07.251Z,86.50
2022-11-17T16:27:41.427Z,86.64
2022-11-17T16:30:11.270Z,86.35
2022-11-17T16:32:39.123Z,86.75
2022-11-17T16:35:09.133Z,86.35
2022-11-17T16:37:41.318Z,86.89
2022-11-17T16:40:10.885Z,86.43
2022-11-17T16:42:41.158Z,86.43
2022-11-17T16:45:17.468Z,86.98
2022-11-17T16:47:45.484Z,87.01
2022-11-17T16:50:15.625Z,86.38
2022-11-17T16:52:43.456Z,86.88
2022-11-17T16:55:11.480Z,86.59
2022-11-17T16:57:40.046Z,86.75
2022-11-17T17:00:09.441Z,87.32
2022-11-17T17:02:37.282Z,86.98
2022-11-17T17:05:12.665Z,87.19
2022-11-17T17:07:48.262Z,86.93
2022-11-17T17:10:16.365Z,86.82
2022-11-17T17:12:46.774Z,87.03
2022-11-17T17:15:20.993Z,86.85
2022-11-17T17:17:51.493Z,86.21
2022-11-17T17:20:19.509Z,86.52
2022-11-17T17:22:51.356Z,86.93
2022-11-17T17:25:19.456Z,86.39
2022-11-17T17:27:47.349Z,86.73
2022-11-17T17:30:16.244Z,87.16
2022-11-17T17:32:44.277Z,87.00
2022-11-17T17:35:13.956Z,86.47
2022-11-17T17:37:41.710Z,86.75
2022-11-17T17:40:12.247Z,86.49
2022-11-17T17:42:50.402Z,86.41
2022-11-17T17:45:18.491Z,86.86
2022-11-17T17:47:47.267Z,86.82
2022-11-17T17:50:15.639Z,86.19
2022-11-17T17:52:43.599Z,86.40
2022-11-17T17:55:12.808Z,86.45
2022-11-17T17:57:40.826Z,86.31
2022-11-17T18:00:12.484Z,86.50
2022-11-17T18:02:40.710Z,86.78
2022-11-17T18:05:13.989Z,86.42
2022-11-17T18:07:42.318Z,86.40
2022-11-17T18:10:13.548Z,86.39
2022-11-17T18:12:44.835Z,86.35
2022-11-17T18:15:17.748Z,86.96
2022-11-17T18:17:53.102Z,86.80
2022-11-17T18:20:21.167Z,86.36
2022-11-17T18:22:49.109Z,86.54
2022-11-17T18:25:18.500Z,87.00
2022-11-17T18:27:46.810Z,86.58
2022-11-17T18:30:15.099Z,86.81
2022-11-17T18:32:48.890Z,86.39
2022-11-17T18:35:16.852Z,86.64
2022-11-17T18:37:44.872Z,86.38
2022-11-17T18:40:14.275Z,86.42
2022-11-17T18:42:46.471Z,87.19
2022-11-17T18:45:17.000Z,87.11
2022-11-17T18:47:45.335Z,86.57
2022-11-17T18:50:13.399Z,86.88
2022-11-17T18:52:47.713Z,86.32
2022-11-17T18:55:15.626Z,86.89
2022-11-17T18:57:45.216Z,86.83
2022-11-17T19:00:14.598Z,87.31
2022-11-17T19:02:42.672Z,86.92
2022-11-17T19:05:10.737Z,87.02
2022-11-17T19:07:39.055Z,87.13
2022-11-17T19:10:07.621Z,86.86
2022-11-17T19:12:40.244Z,87.11
2022-11-17T19:15:09.830Z,86.59
2022-11-17T19:17:38.010Z,87.11
2022-11-17T19:20:06.718Z,86.32
2022-11-17T19:22:37.303Z,86.73
2022-11-17T19:25:08.296Z,86.79
2022-11-17T19:27:36.146Z,86.39
2022-11-17T19:30:13.994Z,86.30
2022-11-17T19:32:48.664Z,86.69
2022-11-17T19:35:21.374Z,87.06
2022-11-17T19:37:50.896Z,87.08
2022-11-17T19:40:19.145Z,86.48
2022-11-17T19:42:49.126Z,86.65
2022-11-17T19:45:17.611Z,86.58
2022-11-17T19:47:46.961Z,86.85
2022-11-17T19:50:15.204Z,86.74
2022-11-17T19:52:43.511Z,87.22
2022-11-17T19:55:11.436Z,86.58
2022-11-17T19:57:42.113Z,86.67
2022-11-17T20:00:11.796Z,87.09
2022-11-17T20:02:42.508Z,87.07
2022-11-17T20:05:11.681Z,87.23
2022-11-17T20:07:42.533Z,87.09
2022-11-17T20:10:11.253Z,86.95
2022-11-17T20:12:43.311Z,86.98
2022-11-17T20:15:27.097Z,87.22
2022-11-17T20:17:59.210Z,87.81
2022-11-17T20:20:57.019Z,87.88
2022-11-17T20:23:25.014Z,87.26
2022-11-17T20:25:52.923Z,87.40
2022-11-17T20:28:34.113Z,87.53
2022-11-17T20:31:07.422Z,87.14
2022-11-17T20:34:01.457Z,87.30
2022-11-17T20:36:38.747Z,87.70
2022-11-17T20:39:07.969Z,86.89
2022-11-17T20:41:36.035Z,87.61
2022-11-17T20:44:04.350Z,86.90
2022-11-17T20:46:32.609Z,86.78
2022-11-17T20:49:01.021Z,86.97
2022-11-17T20:51:28.849Z,86.68
2022-11-17T20:53:58.045Z,87.27
2022-11-17T20:56:31.108Z,87.33
2022-11-17T20:59:01.588Z,86.82
2022-11-17T21:01:29.682Z,87.00
2022-11-17T21:03:57.682Z,87.57
2022-11-17T21:06:25.440Z,87.26
2022-11-17T21:08:54.129Z,87.47
2022-11-17T21:11:47.503Z,86.68
2022-11-17T21:14:18.949Z,87.46
2022-11-17T21:16:46.900Z,86.58
2022-11-17T21:19:15.676Z,86.81
2022-11-17T21:21:43.649Z,86.91
2022-11-17T21:24:11.731Z,86.85
2022-11-17T21:26:43.639Z,87.24
2022-11-17T21:29:11.456Z,86.97
2022-11-17T21:31:39.410Z,87.12
2022-11-17T21:34:16.573Z,86.47
2022-11-17T21:36:46.939Z,87.21
2022-11-17T21:39:18.448Z,86.47
2022-11-17T21:41:48.151Z,86.87
2022-11-17T21:44:16.020Z,86.88
2022-11-17T21:46:45.493Z,87.11
2022-11-17T21:49:16.094Z,86.89
2022-11-17T21:51:45.389Z,86.61
2022-11-17T21:54:13.261Z,86.80
2022-11-17T21:56:41.160Z,86.61
2022-11-17T21:59:16.487Z,87.47
2022-11-17T22:01:44.645Z,87.19
2022-11-17T22:04:15.908Z,87.03
2022-11-17T22:06:43.954Z,87.04
2022-11-17T22:09:14.963Z,86.91
2022-11-17T22:11:43.025Z,86.58
2022-11-17T22:14:20.676Z,87.52
2022-11-17T22:16:51.629Z,86.89
2022-11-17T22:19:21.018Z,87.12
2022-11-17T22:21:50.753Z,86.93
2022-11-17T22:24:19.243Z,87.09
2022-11-17T22:26:48.495Z,87.19
2022-11-17T22:29:19.828Z,87.53
2022-11-17T22:31:49.542Z,88.12
2022-11-17T22:34:18.553Z,88.12
2022-11-17T22:36:46.348Z,88.02
2022-11-17T22:39:14.549Z,87.52
2022-11-17T22:41:44.085Z,87.79
2022-11-17T22:44:14.435Z,87.53
2022-11-17T22:46:47.087Z,87.44
2022-11-17T22:49:17.123Z,87.17
2022-11-17T22:52:07.572Z,88.14
2022-11-17T22:54:36.048Z,88.00
2022-11-17T22:57:04.015Z,87.99
2022-11-17T22:59:32.365Z,88.38
2022-11-17T23:02:04.499Z,88.15
2022-11-17T23:04:33.891Z,88.10
2022-11-17T23:07:06.002Z,88.41
2022-11-17T23:09:41.469Z,88.01
2022-11-17T23:12:09.270Z,87.94
2022-11-17T23:14:37.227Z,87.69
2022-11-17T23:17:06.772Z,88.18
2022-11-17T23:19:34.832Z,88.22
2022-11-17T23:22:02.797Z,87.58
2022-11-17T23:24:30.606Z,87.99
2022-11-17T23:27:01.722Z,88.11
2022-11-17T23:29:38.519Z,87.41
2022-11-17T23:32:07.863Z,87.46
2022-11-17T23:34:35.722Z,87.75
2022-11-17T23:37:04.215Z,88.36
2022-11-17T23:39:32.400Z,88.31
2022-11-17T23:42:00.192Z,88.03
2022-11-17T23:44:28.153Z,87.87
2022-11-17T23:46:56.091Z,88.06
2022-11-17T23:49:25.347Z,88.02
2022-11-17T23:51:53.328Z,88.56
2022-11-17T23:54:22.129Z,87.94
2022-11-17T23:56:53.116Z,88.36
2022-11-17T23:59:27.083Z,88.39
